Ossining, NY

9:27 AM EDT on March 31, 2015 (GMT -0400)
North Ossining | | Change Station
CLOSE
Current Station
Personal Weather Station
Location: Ossining, NY
Elevation: 361 ft
Nearby Weather Stations

Elev 361 ft 41.18 °N, 73.86 °W | Updated 6 seconds ago

Clear
Clear
40.0 °F
Feels Like 40 °F
N
1.0
Wind Variable Wind from West
Gusts 2.0 mph

Today
High -- | Low -- °F
--% Chance of Precip.
Yesterday
High -- | Low -- °F
Precip. -- in
6:40 AM 7:19 PM
Waxing Gibbous, 87% visible
Pressure 29.87 in
Visibility 10.0 miles
Clouds Few 4000 ft
Windchill 40 °F
Dew Point 26 °F
Humidity 58%
Rainfall 0.00 in
Snow Depth Not available.
UV 2 out of 12
Pollen 6.40 out of 12
Air Quality Not available.
Flu Activity Not available.
METAR KHPN 311256Z 29008G16KT 10SM FEW040 04/M06 A2985 RMK AO2 SLP113 T00441056

More Conditions Fewer Conditions

Pressure 29.87 in
Visibility 10.0 miles
Clouds Few 4000 ft
Windchill 40 °F
Dew Point 26 °F
Humidity 58%
Rainfall 0.00 in
Snow Depth Not available.
UV 2 out of 12
Pollen 6.40 out of 12
Air Quality Not available.
Flu Activity Not available.
METAR KHPN 311256Z 29008G16KT 10SM FEW040 04/M06 A2985 RMK AO2 SLP113 T00441056

More Conditions Fewer Conditions

10-Day Weather Forecast

Almanac

Astronomy

Mar. 31, 2015 Rise Set
Actual Time
Civil Twilight
Nautical Twilight
Astronomical Twilight
Moon
Length of Visible Light
Length of Day
Tomorrow will be .
, % of the Moon is Illuminated

Today's Extremes

State Highs State Lows

Community

WunderPhotos

Upload Photos

1,809,766 photos uploaded!

WunderBlogs® & News

Nearby

Air Quality

  Air Quality AQ Index Pollutant
Not available.

Snow Depth

Station Depth Elevation

Earthquake Activity

City Distance Mag. Time & Date
Minimum magnitude displayed is 2.5.

Coastal Water Temperatures

Place Temperature

Stations

Nearby Weather Stations

Station Location Temp. Windchill Dew Point Humidity Wind Precip. Elev Updated Type